Observations for Trim Market St
| Time | AQI | Temp °C | Hum % | Pres Pa | CO μg/m³ | H₂S μg/m³ | NO μg/m³ | NO₂ μg/m³ | O₃ μg/m³ | SO₂ μg/m³ | PM1 μg/m³ | PM2.5 μg/m³ | PM10 μg/m³ |
|---|---|---|---|---|---|---|---|---|---|---|---|---|---|
| Tuesday 14 July 2026 | |||||||||||||
| 17:51 | 1 | 26.1 | 34 | 65,803 | 0 | 16.51 | 0 | 10.3 | 41.58 | 0 | 2.14 | 6.38 | 6.68 |
| 17:43 | 1 | 26.7 | 33 | 65,866 | 0 | 24.1 | 0 | 13.17 | 44.43 | 0 | 3.56 | 6.94 | 7.52 |
| 17:42 | 1 | 26.8 | 33 | 65,872 | 0 | 23.7 | 0 | 13.27 | 47.57 | 0 | 4.28 | 9.1 | 10.91 |
| 17:41 | 1 | 26.9 | 33 | 65,882 | 0 | 23.11 | 0 | 12.48 | 46.13 | 0 | 3.56 | 7.5 | 8.37 |
| 17:40 | 1 | 27 | 33 | 65,894 | 0 | 19.99 | 0 | 10.07 | 45.96 | 0 | 2.85 | 7.51 | 8.37 |
| 17:39 | 1 | 27.1 | 32 | 65,912 | 0 | 20.76 | 0 | 11.17 | 44.01 | 0 | 4.28 | 7.52 | 8.38 |
| 17:38 | 1 | 27.2 | 32 | 65,904 | 0 | 19.1 | 0 | 9.16 | 43.84 | 0 | 2.85 | 5.92 | 6.51 |
| 17:37 | 1 | 27.3 | 32 | 65,892 | 0 | 21.69 | 0 | 10.75 | 42.39 | 0 | 2.85 | 6.46 | 8.38 |
| 17:36 | 1 | 27.3 | 32 | 65,902 | 0 | 22.25 | 0 | 10.56 | 46.31 | 0 | 3.56 | 8.63 | 10.08 |
| 17:35 | 1 | 27.5 | 32 | 65,916 | 0 | 21.26 | 0 | 10.13 | 43.18 | 0 | 3.56 | 6.48 | 7.52 |
| 17:34 | 1 | 27.6 | 32 | 65,937 | 0 | 23.2 | 0 | 11.62 | 44.99 | 0 | 3.56 | 7.03 | 8.38 |
| 17:33 | 1 | 27.7 | 31 | 65,964 | 0 | 25.31 | 0 | 12.83 | 43.89 | 0 | 3.56 | 7.58 | 9.24 |
| 17:32 | 1 | 27.8 | 31 | 65,995 | 0 | 23.89 | 0 | 16.24 | 41.03 | 0 | 2.85 | 6.52 | 6.67 |
| 17:31 | 1 | 27.9 | 31 | 65,975 | 0 | 25.84 | 0 | 23.06 | 24.76 | 0 | 3.56 | 6.54 | 8.39 |
| 17:29 | 1 | 28.3 | 30 | 66,005 | 0 | 19.5 | 0 | 10.01 | 43.99 | 0 | 2.85 | 6.02 | 6.62 |
| 17:28 | 1 | 28.4 | 30 | 66,017 | 0 | 21.45 | 0 | 8 | 47.03 | 0 | 2.85 | 6.57 | 7.52 |
| 17:25 | 1 | 28.9 | 29 | 66,068 | 0 | 23.6 | 0 | 10.76 | 48.58 | 0 | 2.14 | 6.07 | 6.68 |
| 17:24 | 1 | 29 | 29 | 66,060 | 0 | 20.76 | 0 | 8.87 | 49.47 | 0 | 2.85 | 7.72 | 8.4 |
| 17:23 | 1 | 29.2 | 28 | 66,084 | 0 | 19.12 | 0 | 7.35 | 44.82 | 0 | 2.14 | 5.55 | 6.65 |
| 17:13 | 1 | 31 | 26 | 66,175 | 0 | 11.23 | 0 | 6.95 | 41.76 | 0 | 2.14 | 5.13 | 5.64 |